MST,Max TemperatureF,Mean TemperatureF,Min TemperatureF,Max Dew PointF,MeanDew PointF,Min DewpointF,Max Humidity, Mean Humidity, Min Humidity, Max Sea Level PressureIn, Mean Sea Level PressureIn, Min Sea Level PressureIn, Max VisibilityMiles, Mean VisibilityMiles, Min VisibilityMiles, Max Wind SpeedMPH, Mean Wind SpeedMPH, Max Gust SpeedMPH,PrecipitationIn, CloudCover, Events, WindDirDegrees
2014-1-1,24,12,-1,16,9,-4,92,80,68,30.58,30.41,30.20,,,,13,3,17,0.00,,,282
2014-1-2,25,13,0,22,14,0,92,85,77,30.57,30.43,30.16,,,,7,1,12,0.01,,,-1
2014-1-3,27,15,2,23,15,-1,88,70,51,30.13,29.87,29.69,,,,18,6,33,0.10,,,276
2014-1-4,17,8,-2,7,1,-6,91,75,59,30.28,30.16,29.96,,,,15,5,24,0.01,,,286
2014-1-5,3,-8,-19,-4,-13,-24,87,72,56,30.75,30.55,30.23,,,,14,3,21,0.01,,,317
2014-1-6,21,1,-19,8,-3,-22,88,75,61,30.86,30.69,30.45,,,,7,1,11,0.00,,,310
2014-1-7,20,9,-3,17,7,-5,95,86,77,30.41,30.31,30.20,,,,6,1,8,0.09,,,271
2014-1-8,25,20,14,21,16,12,96,89,81,30.18,30.12,30.01,,,,8,1,15,0.03,,,270
2014-1-9,26,20,13,21,16,9,92,83,73,29.98,29.84,29.72,,,,13,3,18,0.26,,,278
2014-1-10,24,19,13,19,14,10,92,85,77,30.07,29.93,29.83,,,,17,5,30,0.14,,,272
2014-1-11,33,27,21,28,24,17,92,83,74,30.11,29.82,29.54,,,,21,6,34,0.43,,,268
2014-1-12,23,20,17,17,13,11,84,79,73,30.12,29.86,29.58,,,,20,6,29,0.10,,,271
2014-1-13,26,22,18,20,18,14,91,83,74,30.30,30.21,30.13,,,,18,7,32,0.17,,,272
2014-1-14,31,23,15,20,18,13,92,81,69,30.62,30.51,30.32,,,,15,5,24,0.04,,,280
2014-1-15,30,16,2,18,13,-1,92,71,49,30.60,30.53,30.43,,,,12,2,20,0.00,,,292
2014-1-16,23,10,-3,15,3,-7,100,86,71,30.73,30.67,30.58,,,,5,1,7,0.00,,,315
2014-1-17,26,9,-8,16,2,-11,96,79,61,30.72,30.61,30.47,,,,7,1,12,0.00,,,296
2014-1-18,21,7,-8,9,0,-12,96,79,61,30.74,30.65,30.57,,,,7,1,7,0.00,,,355
2014-1-19,32,15,-2,14,6,-5,95,71,47,30.59,30.46,30.32,,,,7,2,14,0.00,,,334
2014-1-20,29,14,-2,13,6,-6,95,75,55,30.82,30.62,30.32,,,,5,1,6,0.00,,,320
2014-1-21,26,8,-10,8,-2,-15,95,71,46,30.87,30.71,30.58,,,,5,1,6,0.00,,,300
2014-1-22,23,10,-3,19,7,-7,100,90,79,30.53,30.42,30.31,,,,3,0,6,0.05,,,310
2014-1-23,15,1,-13,3,-5,-16,100,77,53,30.88,30.73,30.51,,,,3,0,5,0.00,,,310
2014-1-24,30,12,-7,13,0,-10,91,63,35,30.93,30.79,30.62,,,,5,1,8,0.00,,,319
2014-1-25,28,11,-6,13,1,-10,95,69,42,30.71,30.58,30.44,,,,6,0,8,0.00,,,336
2014-1-26,20,7,-6,14,3,-9,91,79,67,30.41,30.34,30.22,,,,9,2,15,0.00,,,305
2014-1-27,17,1,-15,7,-5,-19,96,63,30,30.52,30.29,30.17,,,,14,3,24,0.00,,,315
2014-1-28,19,-2,-24,5,-12,-28,88,61,34,30.73,30.59,30.42,,,,6,1,7,0.03,,,305
2014-1-29,26,17,8,22,15,6,96,88,80,30.30,29.93,29.64,,,,17,3,27,0.42,,,278
2014-1-30,26,17,7,18,14,5,92,77,62,29.80,29.72,29.64,,,,15,5,23,0.02,,,273
2014-1-31,21,10,-1,8,4,-5,91,70,49,30.00,29.89,29.79,,,,13,3,19,0.00,,,288